首页
METAR-TAF:

METAR-TAF

机场 :

Mobridge Municipal Airport

Mobridge, 南达科他州, 美国

纬度: 45-33-00N, 经度: 100-24-31W, 海拔: 522米

当前天气观测

该预报发布于37分钟前的16:52 UTC
风速8节,风向,在西北北转东北之间变化
温度 28°C
湿度 66%
气压 1004 hPa
能見度: 16.1公里
多云层高于2400英尺

METAR: KMBG 241652Z AUTO 35008KT 320V020 10SM BKN024 28/21 A2965 RMK AO2 SLP025 T02830206

时间: 12:29 (17:29 UTC)

预报

该预报发布于42分钟前的16:47 UTC
预报有效从24日的 17点(UTC)到 25日的 12点(UTC)
风速6节,风向东北
能見度: 10公里
散云层高于2500英尺
从 24日的 1900点(UTC)
风速11节,风向,有时为18节阵风
能見度: 10公里
散云层高于25000英尺
从 25日的 0200点(UTC)
风速7节,风向
能見度: 10公里
天空无云

TAF: KMBG 241647Z 2417/2512 05006KT P6SM SCT025 FM241900 35011G18KT P6SM SCT250 FM250200 36007KT P6SM SKC

超过4000个机场的气象观测和天气预报(METAR&TAF报告)。

可查询的气象台以黄色和红色小点在地图上表示。

将鼠标移到小点上方,可查看气象台名称。

然后点击查看天气观测和预报。

如需切换地图:点击带黑十字的绿色按钮放大地图;点击带横线的绿色按钮缩小地图;或者点击绿色箭头查看邻近地区的地图。


METAR-TAF: